sensor_id;sensor_type;location;lat;lon;timestamp;P1;durP1;ratioP1;P2;durP2;ratioP2
76597;SDS011;65486;53.144;18.134;2023-11-22T00:00:44;17.70;;;7.60;;
76597;SDS011;65486;53.144;18.134;2023-11-22T00:03:33;14.00;;;5.40;;
76597;SDS011;65486;53.144;18.134;2023-11-22T00:06:00;13.50;;;5.20;;
76597;SDS011;65486;53.144;18.134;2023-11-22T00:08:35;14.90;;;6.60;;
76597;SDS011;65486;53.144;18.134;2023-11-22T00:11:03;9.10;;;4.10;;
76597;SDS011;65486;53.144;18.134;2023-11-22T00:13:32;11.00;;;4.80;;
76597;SDS011;65486;53.144;18.134;2023-11-22T00:16:00;12.30;;;4.60;;
76597;SDS011;65486;53.144;18.134;2023-11-22T00:18:29;12.90;;;5.50;;
76597;SDS011;65486;53.144;18.134;2023-11-22T00:20:59;15.20;;;5.80;;
76597;SDS011;65486;53.144;18.134;2023-11-22T00:23:27;21.60;;;7.80;;
76597;SDS011;65486;53.144;18.134;2023-11-22T00:25:56;19.00;;;8.10;;
76597;SDS011;65486;53.144;18.134;2023-11-22T00:28:24;23.10;;;8.30;;
76597;SDS011;65486;53.144;18.134;2023-11-22T00:30:51;18.10;;;7.60;;
76597;SDS011;65486;53.144;18.134;2023-11-22T00:33:20;16.00;;;6.50;;
76597;SDS011;65486;53.144;18.134;2023-11-22T00:35:48;11.70;;;5.30;;
76597;SDS011;65486;53.144;18.134;2023-11-22T00:38:17;12.50;;;4.30;;
76597;SDS011;65486;53.144;18.134;2023-11-22T00:40:44;19.70;;;6.40;;
76597;SDS011;65486;53.144;18.134;2023-11-22T00:43:11;17.50;;;6.90;;
76597;SDS011;65486;53.144;18.134;2023-11-22T00:45:40;15.50;;;6.90;;
76597;SDS011;65486;53.144;18.134;2023-11-22T00:48:07;17.30;;;8.00;;
76597;SDS011;65486;53.144;18.134;2023-11-22T00:50:35;13.70;;;5.80;;
76597;SDS011;65486;53.144;18.134;2023-11-22T00:53:03;18.70;;;7.50;;
76597;SDS011;65486;53.144;18.134;2023-11-22T00:55:30;12.60;;;5.90;;
76597;SDS011;65486;53.144;18.134;2023-11-22T00:57:58;14.60;;;5.80;;
76597;SDS011;65486;53.144;18.134;2023-11-22T01:00:31;9.40;;;3.90;;
76597;SDS011;65486;53.144;18.134;2023-11-22T01:02:59;19.60;;;7.60;;
76597;SDS011;65486;53.144;18.134;2023-11-22T01:05:26;21.70;;;9.10;;
76597;SDS011;65486;53.144;18.134;2023-11-22T01:07:54;12.90;;;5.00;;
76597;SDS011;65486;53.144;18.134;2023-11-22T01:10:22;20.00;;;8.10;;
76597;SDS011;65486;53.144;18.134;2023-11-22T01:12:49;17.70;;;7.50;;
76597;SDS011;65486;53.144;18.134;2023-11-22T01:15:16;24.00;;;10.00;;
76597;SDS011;65486;53.144;18.134;2023-11-22T01:17:45;20.60;;;8.60;;
76597;SDS011;65486;53.144;18.134;2023-11-22T01:20:13;22.40;;;9.10;;
76597;SDS011;65486;53.144;18.134;2023-11-22T01:22:46;17.80;;;7.60;;
76597;SDS011;65486;53.144;18.134;2023-11-22T01:25:16;23.50;;;9.10;;
76597;SDS011;65486;53.144;18.134;2023-11-22T01:27:44;23.60;;;8.70;;
76597;SDS011;65486;53.144;18.134;2023-11-22T01:30:12;20.50;;;8.20;;
76597;SDS011;65486;53.144;18.134;2023-11-22T01:32:44;19.60;;;8.70;;
76597;SDS011;65486;53.144;18.134;2023-11-22T01:35:12;19.60;;;7.40;;
76597;SDS011;65486;53.144;18.134;2023-11-22T01:37:40;21.90;;;9.40;;
76597;SDS011;65486;53.144;18.134;2023-11-22T01:40:09;21.20;;;8.10;;
76597;SDS011;65486;53.144;18.134;2023-11-22T01:42:38;16.90;;;6.90;;
76597;SDS011;65486;53.144;18.134;2023-11-22T01:45:07;21.30;;;8.00;;
76597;SDS011;65486;53.144;18.134;2023-11-22T01:47:36;17.70;;;7.70;;
76597;SDS011;65486;53.144;18.134;2023-11-22T01:50:04;20.80;;;8.90;;
76597;SDS011;65486;53.144;18.134;2023-11-22T01:52:35;20.80;;;8.80;;
76597;SDS011;65486;53.144;18.134;2023-11-22T01:55:02;17.50;;;6.80;;
76597;SDS011;65486;53.144;18.134;2023-11-22T01:57:33;23.40;;;9.40;;
76597;SDS011;65486;53.144;18.134;2023-11-22T02:00:02;22.40;;;8.90;;
76597;SDS011;65486;53.144;18.134;2023-11-22T02:02:41;22.20;;;9.70;;
76597;SDS011;65486;53.144;18.134;2023-11-22T02:05:09;20.70;;;9.00;;
76597;SDS011;65486;53.144;18.134;2023-11-22T02:07:37;17.50;;;7.60;;
76597;SDS011;65486;53.144;18.134;2023-11-22T02:10:08;22.10;;;8.20;;
76597;SDS011;65486;53.144;18.134;2023-11-22T02:12:36;14.50;;;5.70;;
76597;SDS011;65486;53.144;18.134;2023-11-22T02:15:03;13.50;;;5.70;;
76597;SDS011;65486;53.144;18.134;2023-11-22T02:17:31;11.50;;;5.20;;
76597;SDS011;65486;53.144;18.134;2023-11-22T02:20:01;14.30;;;6.10;;
76597;SDS011;65486;53.144;18.134;2023-11-22T02:22:42;15.10;;;5.90;;
76597;SDS011;65486;53.144;18.134;2023-11-22T02:25:13;22.00;;;8.70;;
76597;SDS011;65486;53.144;18.134;2023-11-22T02:27:42;21.00;;;9.00;;
76597;SDS011;65486;53.144;18.134;2023-11-22T02:30:09;21.20;;;8.50;;
76597;SDS011;65486;53.144;18.134;2023-11-22T02:32:38;12.10;;;5.40;;
76597;SDS011;65486;53.144;18.134;2023-11-22T02:35:05;21.00;;;7.80;;
76597;SDS011;65486;53.144;18.134;2023-11-22T02:37:34;26.50;;;11.00;;
76597;SDS011;65486;53.144;18.134;2023-11-22T02:40:06;32.10;;;12.40;;
76597;SDS011;65486;53.144;18.134;2023-11-22T02:42:48;36.30;;;14.50;;
76597;SDS011;65486;53.144;18.134;2023-11-22T02:45:19;32.40;;;12.90;;
76597;SDS011;65486;53.144;18.134;2023-11-22T02:47:51;31.80;;;13.00;;
76597;SDS011;65486;53.144;18.134;2023-11-22T02:50:20;33.10;;;13.30;;
76597;SDS011;65486;53.144;18.134;2023-11-22T02:52:48;32.00;;;13.00;;
76597;SDS011;65486;53.144;18.134;2023-11-22T02:55:15;31.70;;;12.40;;
76597;SDS011;65486;53.144;18.134;2023-11-22T02:57:42;31.60;;;11.80;;
76597;SDS011;65486;53.144;18.134;2023-11-22T03:00:09;27.20;;;10.80;;
76597;SDS011;65486;53.144;18.134;2023-11-22T03:02:41;27.70;;;11.30;;
76597;SDS011;65486;53.144;18.134;2023-11-22T03:05:08;26.80;;;11.30;;
76597;SDS011;65486;53.144;18.134;2023-11-22T03:07:41;25.90;;;10.40;;
76597;SDS011;65486;53.144;18.134;2023-11-22T03:10:08;27.80;;;11.00;;
76597;SDS011;65486;53.144;18.134;2023-11-22T03:12:35;25.90;;;10.70;;
76597;SDS011;65486;53.144;18.134;2023-11-22T03:15:03;16.20;;;6.50;;
76597;SDS011;65486;53.144;18.134;2023-11-22T03:17:32;19.50;;;7.90;;
76597;SDS011;65486;53.144;18.134;2023-11-22T03:20:04;20.70;;;8.20;;
76597;SDS011;65486;53.144;18.134;2023-11-22T03:22:39;16.80;;;7.30;;
76597;SDS011;65486;53.144;18.134;2023-11-22T03:25:07;11.60;;;4.90;;
76597;SDS011;65486;53.144;18.134;2023-11-22T03:27:37;12.20;;;4.90;;
76597;SDS011;65486;53.144;18.134;2023-11-22T03:30:05;18.50;;;7.70;;
76597;SDS011;65486;53.144;18.134;2023-11-22T03:32:38;14.80;;;5.80;;
76597;SDS011;65486;53.144;18.134;2023-11-22T03:35:06;14.60;;;6.90;;
76597;SDS011;65486;53.144;18.134;2023-11-22T03:37:34;19.50;;;7.60;;
76597;SDS011;65486;53.144;18.134;2023-11-22T03:40:03;19.80;;;8.50;;
76597;SDS011;65486;53.144;18.134;2023-11-22T03:42:31;14.90;;;6.30;;
76597;SDS011;65486;53.144;18.134;2023-11-22T03:44:58;15.30;;;6.50;;
76597;SDS011;65486;53.144;18.134;2023-11-22T03:47:26;21.70;;;8.80;;
76597;SDS011;65486;53.144;18.134;2023-11-22T03:49:53;19.40;;;8.50;;
76597;SDS011;65486;53.144;18.134;2023-11-22T03:52:20;23.40;;;8.90;;
76597;SDS011;65486;53.144;18.134;2023-11-22T03:54:47;20.80;;;8.30;;
76597;SDS011;65486;53.144;18.134;2023-11-22T03:57:15;13.70;;;5.80;;
76597;SDS011;65486;53.144;18.134;2023-11-22T03:59:42;17.40;;;8.50;;
76597;SDS011;65486;53.144;18.134;2023-11-22T04:02:10;11.00;;;5.20;;
76597;SDS011;65486;53.144;18.134;2023-11-22T04:04:37;16.30;;;6.50;;
76597;SDS011;65486;53.144;18.134;2023-11-22T04:07:08;18.80;;;8.00;;
76597;SDS011;65486;53.144;18.134;2023-11-22T04:09:35;18.10;;;7.20;;
76597;SDS011;65486;53.144;18.134;2023-11-22T04:12:02;13.60;;;5.90;;
76597;SDS011;65486;53.144;18.134;2023-11-22T04:14:31;18.70;;;8.10;;
76597;SDS011;65486;53.144;18.134;2023-11-22T04:16:58;17.20;;;7.20;;
76597;SDS011;65486;53.144;18.134;2023-11-22T04:19:25;21.20;;;8.70;;
76597;SDS011;65486;53.144;18.134;2023-11-22T04:21:52;19.80;;;8.10;;
76597;SDS011;65486;53.144;18.134;2023-11-22T04:24:21;22.40;;;8.90;;
76597;SDS011;65486;53.144;18.134;2023-11-22T04:26:48;27.90;;;10.20;;
76597;SDS011;65486;53.144;18.134;2023-11-22T04:29:15;24.40;;;8.90;;
76597;SDS011;65486;53.144;18.134;2023-11-22T04:31:43;27.40;;;11.10;;
76597;SDS011;65486;53.144;18.134;2023-11-22T04:34:11;25.10;;;10.20;;
76597;SDS011;65486;53.144;18.134;2023-11-22T04:36:38;27.40;;;10.80;;
76597;SDS011;65486;53.144;18.134;2023-11-22T04:39:05;26.60;;;10.30;;
76597;SDS011;65486;53.144;18.134;2023-11-22T04:41:34;29.30;;;10.90;;
76597;SDS011;65486;53.144;18.134;2023-11-22T04:44:01;31.40;;;11.90;;
76597;SDS011;65486;53.144;18.134;2023-11-22T04:46:29;28.00;;;11.90;;
76597;SDS011;65486;53.144;18.134;2023-11-22T04:48:56;27.50;;;11.50;;
76597;SDS011;65486;53.144;18.134;2023-11-22T04:51:24;29.70;;;12.00;;
76597;SDS011;65486;53.144;18.134;2023-11-22T04:53:51;28.80;;;11.30;;
76597;SDS011;65486;53.144;18.134;2023-11-22T04:56:18;29.80;;;11.50;;
76597;SDS011;65486;53.144;18.134;2023-11-22T04:58:46;28.80;;;12.20;;
76597;SDS011;65486;53.144;18.134;2023-11-22T05:01:13;33.40;;;13.10;;
76597;SDS011;65486;53.144;18.134;2023-11-22T05:03:44;35.60;;;12.60;;
76597;SDS011;65486;53.144;18.134;2023-11-22T05:06:11;28.30;;;12.00;;
76597;SDS011;65486;53.144;18.134;2023-11-22T05:08:39;27.50;;;12.10;;
76597;SDS011;65486;53.144;18.134;2023-11-22T05:11:07;28.70;;;12.40;;
76597;SDS011;65486;53.144;18.134;2023-11-22T05:13:37;27.80;;;11.20;;
76597;SDS011;65486;53.144;18.134;2023-11-22T05:16:04;21.00;;;7.50;;
76597;SDS011;65486;53.144;18.134;2023-11-22T05:18:31;29.60;;;11.70;;
76597;SDS011;65486;53.144;18.134;2023-11-22T05:20:59;25.70;;;9.80;;
76597;SDS011;65486;53.144;18.134;2023-11-22T05:23:26;33.40;;;11.50;;
76597;SDS011;65486;53.144;18.134;2023-11-22T05:25:53;41.40;;;17.40;;
76597;SDS011;65486;53.144;18.134;2023-11-22T05:28:21;39.30;;;14.90;;
76597;SDS011;65486;53.144;18.134;2023-11-22T05:30:49;53.50;;;17.60;;
76597;SDS011;65486;53.144;18.134;2023-11-22T05:33:17;41.80;;;15.60;;
76597;SDS011;65486;53.144;18.134;2023-11-22T05:35:44;41.30;;;12.90;;
76597;SDS011;65486;53.144;18.134;2023-11-22T05:38:13;37.00;;;12.80;;
76597;SDS011;65486;53.144;18.134;2023-11-22T05:40:40;30.00;;;11.40;;
76597;SDS011;65486;53.144;18.134;2023-11-22T05:43:10;29.90;;;10.70;;
76597;SDS011;65486;53.144;18.134;2023-11-22T05:45:37;29.70;;;11.60;;
76597;SDS011;65486;53.144;18.134;2023-11-22T05:48:05;31.10;;;12.30;;
76597;SDS011;65486;53.144;18.134;2023-11-22T05:50:32;31.70;;;11.50;;
76597;SDS011;65486;53.144;18.134;2023-11-22T05:52:59;34.50;;;11.70;;
76597;SDS011;65486;53.144;18.134;2023-11-22T05:55:26;21.40;;;8.50;;
76597;SDS011;65486;53.144;18.134;2023-11-22T05:57:55;21.20;;;7.70;;
76597;SDS011;65486;53.144;18.134;2023-11-22T06:00:23;26.40;;;10.70;;
76597;SDS011;65486;53.144;18.134;2023-11-22T06:02:50;28.50;;;11.60;;
76597;SDS011;65486;53.144;18.134;2023-11-22T06:05:20;30.70;;;11.60;;
76597;SDS011;65486;53.144;18.134;2023-11-22T06:07:47;22.70;;;7.40;;
76597;SDS011;65486;53.144;18.134;2023-11-22T06:10:14;29.10;;;12.20;;
76597;SDS011;65486;53.144;18.134;2023-11-22T06:12:44;28.70;;;11.30;;
76597;SDS011;65486;53.144;18.134;2023-11-22T06:15:11;24.00;;;9.50;;
76597;SDS011;65486;53.144;18.134;2023-11-22T06:17:39;24.10;;;9.70;;
76597;SDS011;65486;53.144;18.134;2023-11-22T06:20:06;27.60;;;11.00;;
76597;SDS011;65486;53.144;18.134;2023-11-22T06:22:34;27.50;;;10.60;;
76597;SDS011;65486;53.144;18.134;2023-11-22T06:25:01;19.50;;;8.40;;
76597;SDS011;65486;53.144;18.134;2023-11-22T06:27:28;19.10;;;7.90;;
76597;SDS011;65486;53.144;18.134;2023-11-22T06:29:55;23.60;;;9.60;;
76597;SDS011;65486;53.144;18.134;2023-11-22T06:32:22;23.30;;;10.00;;
76597;SDS011;65486;53.144;18.134;2023-11-22T06:34:49;32.00;;;12.30;;
76597;SDS011;65486;53.144;18.134;2023-11-22T06:37:18;24.30;;;10.80;;
76597;SDS011;65486;53.144;18.134;2023-11-22T06:39:45;29.30;;;14.30;;
76597;SDS011;65486;53.144;18.134;2023-11-22T06:42:13;34.30;;;15.50;;
76597;SDS011;65486;53.144;18.134;2023-11-22T06:44:40;22.00;;;9.90;;
76597;SDS011;65486;53.144;18.134;2023-11-22T06:47:09;28.60;;;14.80;;
76597;SDS011;65486;53.144;18.134;2023-11-22T06:49:36;34.40;;;16.80;;
76597;SDS011;65486;53.144;18.134;2023-11-22T06:52:04;37.40;;;17.20;;
76597;SDS011;65486;53.144;18.134;2023-11-22T06:54:31;22.30;;;10.30;;
76597;SDS011;65486;53.144;18.134;2023-11-22T06:57:00;28.70;;;13.20;;
76597;SDS011;65486;53.144;18.134;2023-11-22T06:59:27;33.20;;;15.70;;
76597;SDS011;65486;53.144;18.134;2023-11-22T07:01:54;31.30;;;14.90;;
76597;SDS011;65486;53.144;18.134;2023-11-22T07:04:25;17.20;;;8.20;;
76597;SDS011;65486;53.144;18.134;2023-11-22T07:06:52;12.50;;;6.00;;
76597;SDS011;65486;53.144;18.134;2023-11-22T07:09:19;22.80;;;9.60;;
76597;SDS011;65486;53.144;18.134;2023-11-22T07:11:47;12.30;;;6.20;;
76597;SDS011;65486;53.144;18.134;2023-11-22T07:14:15;14.70;;;7.30;;
76597;SDS011;65486;53.144;18.134;2023-11-22T07:16:43;26.70;;;12.00;;
76597;SDS011;65486;53.144;18.134;2023-11-22T07:19:12;20.90;;;9.20;;
76597;SDS011;65486;53.144;18.134;2023-11-22T07:21:40;26.20;;;11.20;;
76597;SDS011;65486;53.144;18.134;2023-11-22T07:24:08;14.40;;;6.40;;
76597;SDS011;65486;53.144;18.134;2023-11-22T07:26:35;24.40;;;10.10;;
76597;SDS011;65486;53.144;18.134;2023-11-22T07:29:04;24.00;;;10.20;;
76597;SDS011;65486;53.144;18.134;2023-11-22T07:31:33;25.70;;;11.30;;
76597;SDS011;65486;53.144;18.134;2023-11-22T07:34:01;29.00;;;12.50;;
76597;SDS011;65486;53.144;18.134;2023-11-22T07:36:31;29.30;;;11.10;;
76597;SDS011;65486;53.144;18.134;2023-11-22T07:38:58;25.80;;;12.20;;
76597;SDS011;65486;53.144;18.134;2023-11-22T07:41:26;29.90;;;11.70;;
76597;SDS011;65486;53.144;18.134;2023-11-22T07:43:57;26.50;;;12.20;;
76597;SDS011;65486;53.144;18.134;2023-11-22T07:46:25;25.70;;;11.10;;
76597;SDS011;65486;53.144;18.134;2023-11-22T07:48:56;24.90;;;9.70;;
76597;SDS011;65486;53.144;18.134;2023-11-22T07:51:24;23.50;;;10.20;;
76597;SDS011;65486;53.144;18.134;2023-11-22T07:53:51;27.70;;;12.40;;
76597;SDS011;65486;53.144;18.134;2023-11-22T07:56:18;27.00;;;12.30;;
76597;SDS011;65486;53.144;18.134;2023-11-22T07:58:45;26.10;;;11.90;;
76597;SDS011;65486;53.144;18.134;2023-11-22T08:01:12;24.40;;;11.60;;
76597;SDS011;65486;53.144;18.134;2023-11-22T08:03:41;24.50;;;11.40;;
76597;SDS011;65486;53.144;18.134;2023-11-22T08:06:13;23.10;;;10.90;;
76597;SDS011;65486;53.144;18.134;2023-11-22T08:08:43;23.20;;;10.80;;
76597;SDS011;65486;53.144;18.134;2023-11-22T08:11:12;23.90;;;11.00;;
76597;SDS011;65486;53.144;18.134;2023-11-22T08:13:42;25.50;;;11.60;;
76597;SDS011;65486;53.144;18.134;2023-11-22T08:16:11;24.30;;;11.90;;
76597;SDS011;65486;53.144;18.134;2023-11-22T08:18:41;24.60;;;12.00;;
76597;SDS011;65486;53.144;18.134;2023-11-22T08:21:09;24.80;;;11.50;;
76597;SDS011;65486;53.144;18.134;2023-11-22T08:23:38;25.00;;;13.10;;
76597;SDS011;65486;53.144;18.134;2023-11-22T08:26:06;25.00;;;13.40;;
76597;SDS011;65486;53.144;18.134;2023-11-22T08:28:35;25.90;;;13.30;;
76597;SDS011;65486;53.144;18.134;2023-11-22T08:31:03;21.50;;;12.90;;
76597;SDS011;65486;53.144;18.134;2023-11-22T08:33:38;18.30;;;11.60;;
76597;SDS011;65486;53.144;18.134;2023-11-22T08:36:08;23.10;;;13.50;;
76597;SDS011;65486;53.144;18.134;2023-11-22T08:38:36;21.30;;;12.80;;
76597;SDS011;65486;53.144;18.134;2023-11-22T08:41:07;22.30;;;12.90;;
76597;SDS011;65486;53.144;18.134;2023-11-22T08:43:41;21.50;;;13.60;;
76597;SDS011;65486;53.144;18.134;2023-11-22T08:46:08;22.10;;;14.20;;
76597;SDS011;65486;53.144;18.134;2023-11-22T08:48:35;19.40;;;13.10;;
76597;SDS011;65486;53.144;18.134;2023-11-22T08:51:03;22.10;;;14.70;;
76597;SDS011;65486;53.144;18.134;2023-11-22T08:53:31;20.00;;;13.60;;
76597;SDS011;65486;53.144;18.134;2023-11-22T08:55:59;23.30;;;15.90;;
76597;SDS011;65486;53.144;18.134;2023-11-22T08:58:28;24.80;;;16.10;;
76597;SDS011;65486;53.144;18.134;2023-11-22T09:00:57;22.40;;;14.90;;
76597;SDS011;65486;53.144;18.134;2023-11-22T09:03:24;19.30;;;12.60;;
76597;SDS011;65486;53.144;18.134;2023-11-22T09:05:52;19.40;;;13.30;;
76597;SDS011;65486;53.144;18.134;2023-11-22T09:08:20;19.00;;;13.00;;
76597;SDS011;65486;53.144;18.134;2023-11-22T09:10:48;16.10;;;11.00;;
76597;SDS011;65486;53.144;18.134;2023-11-22T09:13:15;16.60;;;11.00;;
76597;SDS011;65486;53.144;18.134;2023-11-22T09:15:43;15.60;;;10.00;;
76597;SDS011;65486;53.144;18.134;2023-11-22T09:18:13;15.90;;;10.20;;
76597;SDS011;65486;53.144;18.134;2023-11-22T09:20:43;15.30;;;10.20;;
76597;SDS011;65486;53.144;18.134;2023-11-22T09:23:13;18.90;;;12.50;;
76597;SDS011;65486;53.144;18.134;2023-11-22T09:25:41;17.50;;;11.40;;
76597;SDS011;65486;53.144;18.134;2023-11-22T09:28:09;11.90;;;8.00;;
76597;SDS011;65486;53.144;18.134;2023-11-22T09:30:36;12.80;;;9.70;;
76597;SDS011;65486;53.144;18.134;2023-11-22T09:33:08;16.30;;;10.70;;
76597;SDS011;65486;53.144;18.134;2023-11-22T09:35:37;14.90;;;9.90;;
76597;SDS011;65486;53.144;18.134;2023-11-22T09:38:06;19.70;;;10.60;;
76597;SDS011;65486;53.144;18.134;2023-11-22T09:40:42;13.00;;;8.20;;
76597;SDS011;65486;53.144;18.134;2023-11-22T09:43:12;21.20;;;12.90;;
76597;SDS011;65486;53.144;18.134;2023-11-22T09:45:48;18.90;;;9.80;;
76597;SDS011;65486;53.144;18.134;2023-11-22T09:48:18;24.30;;;13.80;;
76597;SDS011;65486;53.144;18.134;2023-11-22T09:53:56;25.60;;;14.00;;
76597;SDS011;65486;53.144;18.134;2023-11-22T09:56:27;22.50;;;11.00;;
76597;SDS011;65486;53.144;18.134;2023-11-22T09:58:55;30.30;;;15.80;;
76597;SDS011;65486;53.144;18.134;2023-11-22T10:01:24;30.20;;;14.90;;
76597;SDS011;65486;53.144;18.134;2023-11-22T10:03:55;28.40;;;13.10;;
76597;SDS011;65486;53.144;18.134;2023-11-22T10:06:24;26.50;;;12.50;;
76597;SDS011;65486;53.144;18.134;2023-11-22T10:08:52;31.90;;;14.00;;
76597;SDS011;65486;53.144;18.134;2023-11-22T10:11:21;29.60;;;14.70;;
76597;SDS011;65486;53.144;18.134;2023-11-22T10:13:49;23.70;;;11.80;;
76597;SDS011;65486;53.144;18.134;2023-11-22T10:16:18;28.00;;;12.50;;
76597;SDS011;65486;53.144;18.134;2023-11-22T10:18:48;22.60;;;10.60;;
76597;SDS011;65486;53.144;18.134;2023-11-22T10:21:23;24.30;;;12.30;;
76597;SDS011;65486;53.144;18.134;2023-11-22T10:24:00;25.90;;;14.20;;
76597;SDS011;65486;53.144;18.134;2023-11-22T10:26:30;24.10;;;11.60;;
76597;SDS011;65486;53.144;18.134;2023-11-22T10:28:58;27.40;;;14.40;;
76597;SDS011;65486;53.144;18.134;2023-11-22T10:31:26;24.30;;;12.10;;
76597;SDS011;65486;53.144;18.134;2023-11-22T10:33:55;23.10;;;11.60;;
76597;SDS011;65486;53.144;18.134;2023-11-22T10:36:24;22.20;;;11.30;;
76597;SDS011;65486;53.144;18.134;2023-11-22T10:38:53;22.10;;;10.90;;
76597;SDS011;65486;53.144;18.134;2023-11-22T10:41:22;19.90;;;10.20;;
76597;SDS011;65486;53.144;18.134;2023-11-22T10:43:50;20.00;;;10.20;;
76597;SDS011;65486;53.144;18.134;2023-11-22T10:46:29;19.50;;;10.60;;
76597;SDS011;65486;53.144;18.134;2023-11-22T10:48:58;20.20;;;11.30;;
76597;SDS011;65486;53.144;18.134;2023-11-22T10:51:30;19.90;;;9.00;;
76597;SDS011;65486;53.144;18.134;2023-11-22T10:54:01;24.60;;;10.90;;
76597;SDS011;65486;53.144;18.134;2023-11-22T10:56:34;22.10;;;11.60;;
76597;SDS011;65486;53.144;18.134;2023-11-22T10:59:12;24.00;;;11.60;;
76597;SDS011;65486;53.144;18.134;2023-11-22T11:01:44;22.30;;;10.50;;
76597;SDS011;65486;53.144;18.134;2023-11-22T11:04:18;23.40;;;10.30;;
76597;SDS011;65486;53.144;18.134;2023-11-22T11:06:51;20.70;;;10.30;;
76597;SDS011;65486;53.144;18.134;2023-11-22T11:09:20;24.90;;;11.30;;
76597;SDS011;65486;53.144;18.134;2023-11-22T11:11:56;26.60;;;11.80;;
76597;SDS011;65486;53.144;18.134;2023-11-22T11:14:27;25.10;;;10.40;;
76597;SDS011;65486;53.144;18.134;2023-11-22T11:16:55;24.90;;;10.80;;
76597;SDS011;65486;53.144;18.134;2023-11-22T11:19:25;32.50;;;13.70;;
76597;SDS011;65486;53.144;18.134;2023-11-22T11:21:55;32.30;;;13.10;;
76597;SDS011;65486;53.144;18.134;2023-11-22T11:24:24;31.10;;;12.50;;
76597;SDS011;65486;53.144;18.134;2023-11-22T11:26:52;31.90;;;14.30;;
76597;SDS011;65486;53.144;18.134;2023-11-22T11:29:34;29.10;;;13.20;;
76597;SDS011;65486;53.144;18.134;2023-11-22T11:32:04;22.40;;;10.70;;
76597;SDS011;65486;53.144;18.134;2023-11-22T11:34:32;20.60;;;10.10;;
76597;SDS011;65486;53.144;18.134;2023-11-22T11:37:20;27.20;;;10.20;;
76597;SDS011;65486;53.144;18.134;2023-11-22T11:39:47;27.50;;;12.30;;
76597;SDS011;65486;53.144;18.134;2023-11-22T11:42:17;25.70;;;11.10;;
76597;SDS011;65486;53.144;18.134;2023-11-22T11:45:06;24.60;;;10.60;;
76597;SDS011;65486;53.144;18.134;2023-11-22T11:47:33;23.00;;;9.90;;
76597;SDS011;65486;53.144;18.134;2023-11-22T11:50:01;21.90;;;8.80;;
76597;SDS011;65486;53.144;18.134;2023-11-22T11:52:29;23.30;;;8.20;;
76597;SDS011;65486;53.144;18.134;2023-11-22T11:54:57;23.70;;;8.50;;
76597;SDS011;65486;53.144;18.134;2023-11-22T11:57:25;18.00;;;8.70;;
76597;SDS011;65486;53.144;18.134;2023-11-22T11:59:52;18.00;;;8.50;;
76597;SDS011;65486;53.144;18.134;2023-11-22T12:02:23;19.30;;;8.70;;
76597;SDS011;65486;53.144;18.134;2023-11-22T12:04:50;19.30;;;8.30;;
76597;SDS011;65486;53.144;18.134;2023-11-22T12:07:18;17.50;;;8.40;;
76597;SDS011;65486;53.144;18.134;2023-11-22T12:09:45;16.80;;;7.50;;
76597;SDS011;65486;53.144;18.134;2023-11-22T12:12:15;18.20;;;9.10;;
76597;SDS011;65486;53.144;18.134;2023-11-22T12:14:42;16.10;;;7.60;;
76597;SDS011;65486;53.144;18.134;2023-11-22T12:17:11;15.50;;;7.20;;
76597;SDS011;65486;53.144;18.134;2023-11-22T12:19:38;18.30;;;7.70;;
76597;SDS011;65486;53.144;18.134;2023-11-22T12:22:06;16.50;;;7.50;;
76597;SDS011;65486;53.144;18.134;2023-11-22T12:24:35;17.40;;;8.40;;
76597;SDS011;65486;53.144;18.134;2023-11-22T12:27:04;15.60;;;7.90;;
76597;SDS011;65486;53.144;18.134;2023-11-22T12:29:37;19.10;;;8.90;;
76597;SDS011;65486;53.144;18.134;2023-11-22T12:32:04;20.40;;;9.00;;
76597;SDS011;65486;53.144;18.134;2023-11-22T12:34:32;17.00;;;7.90;;
76597;SDS011;65486;53.144;18.134;2023-11-22T12:37:00;19.00;;;8.30;;
76597;SDS011;65486;53.144;18.134;2023-11-22T12:39:28;17.70;;;7.90;;
76597;SDS011;65486;53.144;18.134;2023-11-22T12:41:56;17.00;;;7.50;;
76597;SDS011;65486;53.144;18.134;2023-11-22T12:44:25;19.00;;;8.20;;
76597;SDS011;65486;53.144;18.134;2023-11-22T12:46:52;16.10;;;7.10;;
76597;SDS011;65486;53.144;18.134;2023-11-22T12:49:24;17.70;;;8.00;;
76597;SDS011;65486;53.144;18.134;2023-11-22T12:51:52;16.50;;;7.80;;
76597;SDS011;65486;53.144;18.134;2023-11-22T12:54:21;15.30;;;7.60;;
76597;SDS011;65486;53.144;18.134;2023-11-22T12:56:50;18.10;;;7.60;;
76597;SDS011;65486;53.144;18.134;2023-11-22T12:59:29;18.30;;;8.40;;
76597;SDS011;65486;53.144;18.134;2023-11-22T13:01:57;16.50;;;7.80;;
76597;SDS011;65486;53.144;18.134;2023-11-22T13:04:32;14.90;;;8.00;;
76597;SDS011;65486;53.144;18.134;2023-11-22T13:07:00;24.20;;;9.60;;
76597;SDS011;65486;53.144;18.134;2023-11-22T13:09:28;19.50;;;8.30;;
76597;SDS011;65486;53.144;18.134;2023-11-22T13:11:58;17.80;;;8.20;;
76597;SDS011;65486;53.144;18.134;2023-11-22T13:14:29;16.20;;;8.20;;
76597;SDS011;65486;53.144;18.134;2023-11-22T13:17:04;15.40;;;7.80;;
76597;SDS011;65486;53.144;18.134;2023-11-22T13:19:37;13.10;;;5.90;;
76597;SDS011;65486;53.144;18.134;2023-11-22T13:22:09;14.00;;;6.00;;
76597;SDS011;65486;53.144;18.134;2023-11-22T13:24:36;13.40;;;6.30;;
76597;SDS011;65486;53.144;18.134;2023-11-22T13:27:04;15.20;;;6.60;;
76597;SDS011;65486;53.144;18.134;2023-11-22T13:29:32;17.50;;;8.20;;
76597;SDS011;65486;53.144;18.134;2023-11-22T13:31:59;18.50;;;8.20;;
76597;SDS011;65486;53.144;18.134;2023-11-22T13:34:29;18.60;;;9.00;;
76597;SDS011;65486;53.144;18.134;2023-11-22T13:37:02;20.90;;;9.60;;
76597;SDS011;65486;53.144;18.134;2023-11-22T13:39:31;18.80;;;8.80;;
76597;SDS011;65486;53.144;18.134;2023-11-22T13:42:02;18.80;;;8.30;;
76597;SDS011;65486;53.144;18.134;2023-11-22T13:44:33;19.20;;;8.80;;
76597;SDS011;65486;53.144;18.134;2023-11-22T13:47:00;16.20;;;8.00;;
76597;SDS011;65486;53.144;18.134;2023-11-22T13:49:27;19.80;;;8.50;;
76597;SDS011;65486;53.144;18.134;2023-11-22T13:51:55;20.10;;;8.20;;
76597;SDS011;65486;53.144;18.134;2023-11-22T13:54:24;19.00;;;7.80;;
76597;SDS011;65486;53.144;18.134;2023-11-22T13:56:51;18.80;;;7.70;;
76597;SDS011;65486;53.144;18.134;2023-11-22T13:59:20;17.00;;;8.00;;
76597;SDS011;65486;53.144;18.134;2023-11-22T14:01:47;16.80;;;7.70;;
76597;SDS011;65486;53.144;18.134;2023-11-22T14:04:14;14.20;;;6.30;;
76597;SDS011;65486;53.144;18.134;2023-11-22T14:06:43;17.90;;;8.30;;
76597;SDS011;65486;53.144;18.134;2023-11-22T14:09:12;17.30;;;8.30;;
76597;SDS011;65486;53.144;18.134;2023-11-22T14:11:41;20.90;;;8.50;;
76597;SDS011;65486;53.144;18.134;2023-11-22T14:14:08;19.60;;;8.60;;
76597;SDS011;65486;53.144;18.134;2023-11-22T14:16:36;17.00;;;7.70;;
76597;SDS011;65486;53.144;18.134;2023-11-22T14:19:06;21.80;;;9.30;;
76597;SDS011;65486;53.144;18.134;2023-11-22T14:21:33;21.20;;;9.40;;
76597;SDS011;65486;53.144;18.134;2023-11-22T14:24:02;18.80;;;8.60;;
76597;SDS011;65486;53.144;18.134;2023-11-22T14:26:32;21.70;;;8.30;;
76597;SDS011;65486;53.144;18.134;2023-11-22T14:29:01;16.90;;;8.30;;